createdAt,value
2022-09-03T00:04:02.046Z,19.20
2022-09-03T00:09:07.604Z,15.70
2022-09-03T00:14:12.906Z,16.90
2022-09-03T00:19:17.950Z,15.70
2022-09-03T00:24:21.233Z,16.80
2022-09-03T00:29:25.655Z,16.60
2022-09-03T00:34:39.480Z,15.00
2022-09-03T00:39:42.852Z,15.60
2022-09-03T00:44:55.361Z,18.90
2022-09-03T00:50:30.085Z,13.70
2022-09-03T01:00:33.618Z,11.30
2022-09-03T01:05:35.759Z,13.20
2022-09-03T01:10:56.006Z,13.90
2022-09-03T01:16:16.725Z,13.80
2022-09-03T01:21:38.569Z,15.30
2022-09-03T01:26:47.685Z,17.80
2022-09-03T01:32:08.574Z,14.40
2022-09-03T01:37:13.362Z,13.90
2022-09-03T01:42:30.306Z,12.40
2022-09-03T01:47:35.102Z,13.50
2022-09-03T01:52:36.755Z,13.40
2022-09-03T01:57:42.055Z,12.50
2022-09-03T02:02:48.259Z,11.30
2022-09-03T02:07:54.952Z,11.20
2022-09-03T02:13:02.156Z,8.70
2022-09-03T02:18:05.219Z,13.20
2022-09-03T02:23:07.048Z,12.80
2022-09-03T02:28:26.345Z,13.20
2022-09-03T02:33:38.134Z,10.50
2022-09-03T02:38:41.669Z,13.10
2022-09-03T02:43:49.933Z,17.20
2022-09-03T02:48:51.608Z,11.20
2022-09-03T02:53:53.564Z,14.80
2022-09-03T02:59:15.358Z,13.30
2022-09-03T03:04:24.720Z,12.50
2022-09-03T03:09:26.787Z,13.60
2022-09-03T03:14:28.520Z,11.30
2022-09-03T03:19:30.213Z,16.80
2022-09-03T03:24:32.005Z,12.10
2022-09-03T03:29:34.102Z,21.80
2022-09-03T03:34:35.799Z,14.90
2022-09-03T03:39:37.546Z,11.70
2022-09-03T03:44:39.310Z,15.50
2022-09-03T03:49:41.026Z,16.90
2022-09-03T03:54:43.057Z,11.80
2022-09-03T03:59:45.243Z,14.30
2022-09-03T04:04:47.653Z,15.50
2022-09-03T04:09:49.513Z,16.90
2022-09-03T04:14:52.265Z,16.30
2022-09-03T04:19:53.989Z,15.40
2022-09-03T04:24:55.734Z,13.60
2022-09-03T04:30:00.555Z,26.30
2022-09-03T04:35:16.678Z,28.60
2022-09-03T04:40:18.433Z,25.20
2022-09-03T04:45:20.484Z,30.10
2022-09-03T04:50:23.289Z,16.90
2022-09-03T04:55:25.566Z,16.40
2022-09-03T05:00:27.743Z,9.90
2022-09-03T05:05:35.473Z,15.20
2022-09-03T05:10:37.524Z,15.10
2022-09-03T05:15:39.245Z,14.60
2022-09-03T05:20:40.942Z,17.50
2022-09-03T05:25:42.670Z,10.10
2022-09-03T05:30:45.552Z,18.80
2022-09-03T05:35:47.268Z,12.40
2022-09-03T05:40:49.049Z,13.50
2022-09-03T05:45:50.804Z,13.40
2022-09-03T05:51:05.443Z,12.60
2022-09-03T05:56:11.850Z,18.20
2022-09-03T06:01:14.458Z,18.20
2022-09-03T06:06:16.447Z,17.10
2022-09-03T06:11:18.180Z,11.70
2022-09-03T06:16:20.633Z,14.00
2022-09-03T06:21:32.830Z,14.40
2022-09-03T06:26:34.591Z,16.10
2022-09-03T06:31:36.638Z,12.90
2022-09-03T06:36:38.568Z,14.70
2022-09-03T06:42:00.337Z,11.00
2022-09-03T06:47:24.311Z,11.70
2022-09-03T06:52:58.413Z,11.10
2022-09-03T06:58:10.863Z,12.20
2022-09-03T07:03:12.708Z,11.30
2022-09-03T07:08:21.346Z,18.20
2022-09-03T07:13:31.036Z,13.80
2022-09-03T07:18:33.241Z,14.30
2022-09-03T07:23:35.733Z,17.10
2022-09-03T07:28:38.849Z,13.40
2022-09-03T07:33:41.314Z,8.70
2022-09-03T07:38:47.053Z,8.80
2022-09-03T07:43:49.285Z,13.10
2022-09-03T07:48:51.011Z,9.00
2022-09-03T07:53:54.181Z,10.70
2022-09-03T07:58:56.497Z,9.60
2022-09-03T08:03:58.551Z,7.90
2022-09-03T08:09:05.551Z,5.90
2022-09-03T08:14:08.560Z,4.10
2022-09-03T08:19:11.494Z,8.70
2022-09-03T08:24:14.951Z,6.00
2022-09-03T08:29:17.340Z,8.00
2022-09-03T08:34:39.337Z,7.30
2022-09-03T08:39:50.586Z,8.40
2022-09-03T08:45:00.682Z,6.50
2022-09-03T08:50:04.500Z,4.60
2022-09-03T08:55:27.950Z,7.40
2022-09-03T09:00:52.799Z,5.60
2022-09-03T09:05:57.815Z,7.30
2022-09-03T09:11:02.326Z,9.30
2022-09-03T09:16:04.916Z,9.30
2022-09-03T09:21:17.731Z,3.50
2022-09-03T09:26:22.551Z,3.80
2022-09-03T09:31:24.425Z,4.20
2022-09-03T09:36:45.810Z,4.50
2022-09-03T09:41:58.000Z,10.20
2022-09-03T09:47:08.628Z,7.20
2022-09-03T09:52:12.168Z,5.60
2022-09-03T09:57:18.043Z,5.40
2022-09-03T10:02:27.911Z,6.50
2022-09-03T10:07:42.849Z,9.60
2022-09-03T10:12:47.293Z,7.40
2022-09-03T10:18:07.908Z,8.50
2022-09-03T10:23:20.555Z,5.30
2022-09-03T10:28:24.227Z,5.10
2022-09-03T10:33:30.834Z,5.70
2022-09-03T10:38:44.821Z,23.00
2022-09-03T10:43:58.263Z,10.70
2022-09-03T10:49:00.000Z,4.90
2022-09-03T10:54:17.728Z,9.10
2022-09-03T10:59:33.689Z,5.90
2022-09-03T11:06:09.985Z,5.60
2022-09-03T11:11:26.601Z,10.50
2022-09-03T11:21:31.654Z,15.20
2022-09-03T11:26:35.306Z,7.00
2022-09-03T11:32:13.058Z,6.50
2022-09-03T11:37:19.716Z,6.20
2022-09-03T11:42:28.033Z,9.30
2022-09-03T11:47:40.779Z,11.70
2022-09-03T11:52:42.511Z,10.70
2022-09-03T11:57:44.297Z,13.00
2022-09-03T12:02:48.887Z,33.90
2022-09-03T12:07:59.628Z,19.30
2022-09-03T12:13:05.830Z,26.70
2022-09-03T12:18:22.711Z,15.10
2022-09-03T12:23:30.074Z,7.00
2022-09-03T12:28:35.918Z,16.40
2022-09-03T12:33:40.956Z,8.70
2022-09-03T12:39:18.548Z,12.30
2022-09-03T12:44:53.903Z,12.30
2022-09-03T12:49:58.537Z,19.40
2022-09-03T12:55:04.477Z,12.50
2022-09-03T13:00:10.661Z,12.50
2022-09-03T13:05:15.207Z,10.60
2022-09-03T13:10:24.036Z,11.00
2022-09-03T13:15:26.132Z,17.10
2022-09-03T13:20:29.442Z,21.20
2022-09-03T13:25:41.291Z,17.10
2022-09-03T13:30:52.684Z,19.20
2022-09-03T13:36:06.110Z,21.80
2022-09-03T13:41:10.854Z,21.80
2022-09-03T13:46:22.263Z,14.60
2022-09-03T13:51:27.898Z,10.40
2022-09-03T13:56:36.601Z,12.10
2022-09-03T14:01:44.621Z,9.10
2022-09-03T14:07:03.320Z,15.40
2022-09-03T14:12:17.338Z,11.70
2022-09-03T14:17:26.837Z,9.30
2022-09-03T14:22:31.596Z,8.60
2022-09-03T14:27:35.016Z,7.20
2022-09-03T14:32:59.577Z,6.60
2022-09-03T14:38:07.375Z,11.30
2022-09-03T14:43:30.965Z,10.70
2022-09-03T14:48:41.669Z,6.40
2022-09-03T14:54:05.215Z,6.20
2022-09-03T15:04:22.113Z,13.60
2022-09-03T15:09:40.294Z,13.10
2022-09-03T15:14:58.651Z,16.90
2022-09-03T15:20:24.211Z,8.80
2022-09-03T15:25:39.525Z,8.20
2022-09-03T15:30:44.286Z,15.70
2022-09-03T15:35:56.748Z,6.60
2022-09-03T15:41:02.684Z,9.60
2022-09-03T15:46:10.913Z,7.10
2022-09-03T15:51:15.667Z,9.60
2022-09-03T15:56:39.327Z,11.50
2022-09-03T16:01:41.398Z,13.90
2022-09-03T16:06:49.531Z,23.50
2022-09-03T16:12:09.900Z,12.10
2022-09-03T16:17:34.950Z,13.70
2022-09-03T16:22:49.387Z,17.70
2022-09-03T16:28:15.146Z,9.90
2022-09-03T16:33:28.394Z,13.90
2022-09-03T16:39:02.220Z,16.90
2022-09-03T16:44:38.774Z,16.90
2022-09-03T16:49:51.556Z,14.90
2022-09-03T16:54:55.950Z,13.60
2022-09-03T17:00:02.996Z,10.30
2022-09-03T17:05:23.747Z,17.00
2022-09-03T17:10:28.639Z,17.20
2022-09-03T17:15:30.403Z,10.60
2022-09-03T17:20:35.097Z,15.80
2022-09-03T17:25:38.698Z,17.20
2022-09-03T17:30:56.899Z,25.90
2022-09-03T17:36:06.396Z,31.50
2022-09-03T17:41:29.089Z,25.70
2022-09-03T17:46:49.669Z,27.40
2022-09-03T17:52:14.777Z,53.50
2022-09-03T17:57:21.973Z,29.10
2022-09-03T18:02:39.240Z,33.80
2022-09-03T18:07:47.433Z,26.60
2022-09-03T18:13:14.273Z,18.40
2022-09-03T18:18:27.651Z,14.60
2022-09-03T18:23:58.397Z,14.30
2022-09-03T18:29:18.609Z,14.90
2022-09-03T18:34:40.455Z,18.70
2022-09-03T18:40:03.164Z,24.80
2022-09-03T18:45:48.353Z,30.90
2022-09-03T18:51:16.727Z,23.10
2022-09-03T18:56:47.989Z,17.00
2022-09-03T19:02:08.332Z,17.40
2022-09-03T19:07:39.729Z,18.30
2022-09-03T19:13:23.619Z,20.00
2022-09-03T19:19:03.461Z,19.70
2022-09-03T19:24:24.057Z,19.00
2022-09-03T19:30:03.638Z,19.90
2022-09-03T19:35:28.972Z,20.40
2022-09-03T19:41:08.178Z,23.30
2022-09-03T19:46:32.001Z,20.70
2022-09-03T19:52:04.206Z,22.70
2022-09-03T19:57:24.764Z,20.90
2022-09-03T20:02:59.134Z,21.40
2022-09-03T20:08:20.295Z,21.40
2022-09-03T20:14:02.216Z,19.50
2022-09-03T20:19:10.941Z,20.20
2022-09-03T20:24:12.579Z,19.70
2022-09-03T20:29:17.445Z,19.00
2022-09-03T20:34:26.121Z,20.70
2022-09-03T20:39:33.905Z,21.10
2022-09-03T20:44:50.692Z,19.80
2022-09-03T20:50:10.999Z,20.40
2022-09-03T20:55:17.636Z,23.50
2022-09-03T21:00:21.232Z,20.00
2022-09-03T21:05:27.218Z,22.20
2022-09-03T21:10:34.281Z,17.10
2022-09-03T21:15:35.919Z,20.20
2022-09-03T21:20:40.869Z,18.90
2022-09-03T21:25:49.917Z,19.20
2022-09-03T21:30:58.481Z,18.70
2022-09-03T21:36:25.224Z,18.00
2022-09-03T21:41:49.477Z,15.90
2022-09-03T21:46:57.053Z,18.90
2022-09-03T21:52:02.039Z,19.90
2022-09-03T21:57:22.586Z,19.60
2022-09-03T22:02:28.657Z,21.00
2022-09-03T22:07:33.413Z,22.10
2022-09-03T22:12:35.053Z,17.90
2022-09-03T22:17:46.197Z,19.70
2022-09-03T22:22:56.639Z,18.60
2022-09-03T22:28:13.073Z,17.20
2022-09-03T22:33:47.460Z,16.60
2022-09-03T22:39:08.927Z,19.50
2022-09-03T22:44:30.862Z,18.00
2022-09-03T22:49:45.533Z,17.40
2022-09-03T22:54:54.621Z,19.30
2022-09-03T23:00:06.475Z,20.30
2022-09-03T23:05:08.663Z,20.00
2022-09-03T23:10:13.409Z,19.30
2022-09-03T23:15:30.311Z,17.10
2022-09-03T23:20:34.217Z,18.00
2022-09-03T23:25:37.781Z,19.90
2022-09-03T23:30:41.779Z,19.00
2022-09-03T23:35:53.576Z,21.50
2022-09-03T23:40:58.067Z,20.40
2022-09-03T23:46:14.482Z,18.70
2022-09-03T23:51:22.797Z,20.00
2022-09-03T23:56:32.204Z,22.80
